sensor_id;sensor_type;location;lat;lon;timestamp;P1;durP1;ratioP1;P2;durP2;ratioP2
14316;SDS011;7242;50.858;6.586;2024-02-26T00:00:10;1.73;;;1.30;;
14316;SDS011;7242;50.858;6.586;2024-02-26T00:03:11;1.80;;;1.70;;
14316;SDS011;7242;50.858;6.586;2024-02-26T00:06:12;1.40;;;1.30;;
14316;SDS011;7242;50.858;6.586;2024-02-26T00:09:13;1.50;;;1.30;;
14316;SDS011;7242;50.858;6.586;2024-02-26T00:12:14;1.40;;;1.20;;
14316;SDS011;7242;50.858;6.586;2024-02-26T00:15:15;3.87;;;1.30;;
14316;SDS011;7242;50.858;6.586;2024-02-26T00:18:17;1.03;;;1.00;;
14316;SDS011;7242;50.858;6.586;2024-02-26T00:21:18;4.73;;;1.10;;
14316;SDS011;7242;50.858;6.586;2024-02-26T00:24:19;1.70;;;1.30;;
14316;SDS011;7242;50.858;6.586;2024-02-26T00:27:20;2.03;;;1.40;;
14316;SDS011;7242;50.858;6.586;2024-02-26T00:30:21;1.80;;;1.30;;
14316;SDS011;7242;50.858;6.586;2024-02-26T00:33:23;1.70;;;1.23;;
14316;SDS011;7242;50.858;6.586;2024-02-26T00:36:24;1.77;;;1.40;;
14316;SDS011;7242;50.858;6.586;2024-02-26T00:39:25;2.40;;;1.60;;
14316;SDS011;7242;50.858;6.586;2024-02-26T00:42:26;1.70;;;1.23;;
14316;SDS011;7242;50.858;6.586;2024-02-26T00:45:27;2.57;;;1.50;;
14316;SDS011;7242;50.858;6.586;2024-02-26T00:48:28;1.97;;;1.50;;
14316;SDS011;7242;50.858;6.586;2024-02-26T00:51:29;2.60;;;1.80;;
14316;SDS011;7242;50.858;6.586;2024-02-26T00:54:30;2.17;;;1.43;;
14316;SDS011;7242;50.858;6.586;2024-02-26T00:57:31;3.40;;;1.50;;
14316;SDS011;7242;50.858;6.586;2024-02-26T01:00:32;1.83;;;1.53;;
14316;SDS011;7242;50.858;6.586;2024-02-26T01:03:33;3.20;;;1.37;;
14316;SDS011;7242;50.858;6.586;2024-02-26T01:06:34;1.67;;;1.30;;
14316;SDS011;7242;50.858;6.586;2024-02-26T01:09:36;3.27;;;1.53;;
14316;SDS011;7242;50.858;6.586;2024-02-26T01:12:37;2.10;;;1.50;;
14316;SDS011;7242;50.858;6.586;2024-02-26T01:15:38;3.60;;;1.70;;
14316;SDS011;7242;50.858;6.586;2024-02-26T01:18:39;1.80;;;1.50;;
14316;SDS011;7242;50.858;6.586;2024-02-26T01:21:40;2.20;;;1.30;;
14316;SDS011;7242;50.858;6.586;2024-02-26T01:24:41;1.60;;;1.47;;
14316;SDS011;7242;50.858;6.586;2024-02-26T01:27:42;3.00;;;1.60;;
14316;SDS011;7242;50.858;6.586;2024-02-26T01:30:44;2.20;;;1.80;;
14316;SDS011;7242;50.858;6.586;2024-02-26T01:33:45;2.77;;;1.70;;
14316;SDS011;7242;50.858;6.586;2024-02-26T01:36:46;1.53;;;1.43;;
14316;SDS011;7242;50.858;6.586;2024-02-26T01:39:46;2.90;;;1.60;;
14316;SDS011;7242;50.858;6.586;2024-02-26T01:42:48;3.13;;;1.87;;
14316;SDS011;7242;50.858;6.586;2024-02-26T01:45:49;2.70;;;1.97;;
14316;SDS011;7242;50.858;6.586;2024-02-26T01:48:50;2.77;;;1.80;;
14316;SDS011;7242;50.858;6.586;2024-02-26T01:51:51;3.40;;;1.70;;
14316;SDS011;7242;50.858;6.586;2024-02-26T01:54:52;3.73;;;1.63;;
14316;SDS011;7242;50.858;6.586;2024-02-26T01:57:53;2.60;;;1.80;;
14316;SDS011;7242;50.858;6.586;2024-02-26T02:00:55;2.10;;;1.90;;
14316;SDS011;7242;50.858;6.586;2024-02-26T02:03:57;2.60;;;2.10;;
14316;SDS011;7242;50.858;6.586;2024-02-26T02:06:59;2.67;;;2.30;;
14316;SDS011;7242;50.858;6.586;2024-02-26T02:10:00;3.57;;;2.00;;
14316;SDS011;7242;50.858;6.586;2024-02-26T02:13:03;2.23;;;1.70;;
14316;SDS011;7242;50.858;6.586;2024-02-26T02:16:04;1.70;;;1.47;;
14316;SDS011;7242;50.858;6.586;2024-02-26T02:19:05;1.63;;;1.53;;
14316;SDS011;7242;50.858;6.586;2024-02-26T02:22:06;1.57;;;1.40;;
14316;SDS011;7242;50.858;6.586;2024-02-26T02:25:07;2.90;;;1.80;;
14316;SDS011;7242;50.858;6.586;2024-02-26T02:28:08;3.40;;;1.70;;
14316;SDS011;7242;50.858;6.586;2024-02-26T02:31:09;1.60;;;1.50;;
14316;SDS011;7242;50.858;6.586;2024-02-26T02:34:11;2.73;;;1.40;;
14316;SDS011;7242;50.858;6.586;2024-02-26T02:37:12;2.33;;;1.30;;
14316;SDS011;7242;50.858;6.586;2024-02-26T02:40:14;1.57;;;1.20;;
14316;SDS011;7242;50.858;6.586;2024-02-26T02:43:14;1.73;;;1.03;;
14316;SDS011;7242;50.858;6.586;2024-02-26T02:46:15;1.23;;;1.13;;
14316;SDS011;7242;50.858;6.586;2024-02-26T02:49:16;2.17;;;1.10;;
14316;SDS011;7242;50.858;6.586;2024-02-26T02:52:17;1.77;;;1.00;;
14316;SDS011;7242;50.858;6.586;2024-02-26T02:55:18;1.90;;;0.93;;
14316;SDS011;7242;50.858;6.586;2024-02-26T02:58:19;2.30;;;1.10;;
14316;SDS011;7242;50.858;6.586;2024-02-26T03:01:20;1.97;;;1.03;;
14316;SDS011;7242;50.858;6.586;2024-02-26T03:04:22;1.30;;;1.20;;
14316;SDS011;7242;50.858;6.586;2024-02-26T03:07:23;2.33;;;1.30;;
14316;SDS011;7242;50.858;6.586;2024-02-26T03:10:24;1.43;;;1.20;;
14316;SDS011;7242;50.858;6.586;2024-02-26T03:13:25;1.97;;;1.40;;
14316;SDS011;7242;50.858;6.586;2024-02-26T03:16:26;1.60;;;1.20;;
14316;SDS011;7242;50.858;6.586;2024-02-26T03:19:27;1.90;;;1.40;;
14316;SDS011;7242;50.858;6.586;2024-02-26T03:22:28;3.57;;;1.50;;
14316;SDS011;7242;50.858;6.586;2024-02-26T03:25:29;1.53;;;1.33;;
14316;SDS011;7242;50.858;6.586;2024-02-26T03:28:30;1.40;;;1.30;;
14316;SDS011;7242;50.858;6.586;2024-02-26T03:31:33;2.20;;;1.50;;
14316;SDS011;7242;50.858;6.586;2024-02-26T03:34:34;2.03;;;1.67;;
14316;SDS011;7242;50.858;6.586;2024-02-26T03:37:35;1.90;;;1.60;;
14316;SDS011;7242;50.858;6.586;2024-02-26T03:40:36;3.50;;;1.83;;
14316;SDS011;7242;50.858;6.586;2024-02-26T03:43:37;2.70;;;1.80;;
14316;SDS011;7242;50.858;6.586;2024-02-26T03:46:38;2.13;;;1.70;;
14316;SDS011;7242;50.858;6.586;2024-02-26T03:49:39;3.03;;;1.60;;
14316;SDS011;7242;50.858;6.586;2024-02-26T03:52:40;3.57;;;2.10;;
14316;SDS011;7242;50.858;6.586;2024-02-26T03:55:41;2.80;;;2.13;;
14316;SDS011;7242;50.858;6.586;2024-02-26T03:58:42;2.13;;;1.77;;
14316;SDS011;7242;50.858;6.586;2024-02-26T04:01:47;2.67;;;1.70;;
14316;SDS011;7242;50.858;6.586;2024-02-26T04:04:48;3.33;;;1.80;;
14316;SDS011;7242;50.858;6.586;2024-02-26T04:07:49;1.67;;;1.50;;
14316;SDS011;7242;50.858;6.586;2024-02-26T04:10:50;2.73;;;1.50;;
14316;SDS011;7242;50.858;6.586;2024-02-26T04:13:51;2.57;;;1.60;;
14316;SDS011;7242;50.858;6.586;2024-02-26T04:16:52;2.73;;;1.50;;
14316;SDS011;7242;50.858;6.586;2024-02-26T04:19:54;1.93;;;1.50;;
14316;SDS011;7242;50.858;6.586;2024-02-26T04:22:55;2.40;;;1.47;;
14316;SDS011;7242;50.858;6.586;2024-02-26T04:25:56;2.23;;;1.83;;
14316;SDS011;7242;50.858;6.586;2024-02-26T04:28:57;4.53;;;3.50;;
14316;SDS011;7242;50.858;6.586;2024-02-26T04:31:58;3.43;;;2.70;;
14316;SDS011;7242;50.858;6.586;2024-02-26T04:35:00;2.00;;;1.80;;
14316;SDS011;7242;50.858;6.586;2024-02-26T04:38:01;2.50;;;1.70;;
14316;SDS011;7242;50.858;6.586;2024-02-26T04:41:02;2.00;;;1.80;;
14316;SDS011;7242;50.858;6.586;2024-02-26T04:44:03;1.70;;;1.60;;
14316;SDS011;7242;50.858;6.586;2024-02-26T04:47:04;3.13;;;1.87;;
14316;SDS011;7242;50.858;6.586;2024-02-26T04:50:05;2.53;;;1.70;;
14316;SDS011;7242;50.858;6.586;2024-02-26T04:53:06;2.57;;;2.00;;
14316;SDS011;7242;50.858;6.586;2024-02-26T04:56:08;3.07;;;2.23;;
14316;SDS011;7242;50.858;6.586;2024-02-26T04:59:09;2.87;;;2.13;;
14316;SDS011;7242;50.858;6.586;2024-02-26T05:02:10;2.40;;;2.20;;
14316;SDS011;7242;50.858;6.586;2024-02-26T05:05:11;2.00;;;1.90;;
14316;SDS011;7242;50.858;6.586;2024-02-26T05:08:13;3.07;;;1.87;;
14316;SDS011;7242;50.858;6.586;2024-02-26T05:11:14;2.90;;;1.77;;
14316;SDS011;7242;50.858;6.586;2024-02-26T05:14:15;3.27;;;2.00;;
14316;SDS011;7242;50.858;6.586;2024-02-26T05:17:16;1.73;;;1.60;;
14316;SDS011;7242;50.858;6.586;2024-02-26T05:20:17;2.50;;;1.90;;
14316;SDS011;7242;50.858;6.586;2024-02-26T05:23:18;2.97;;;2.30;;
14316;SDS011;7242;50.858;6.586;2024-02-26T05:26:20;2.97;;;2.67;;
14316;SDS011;7242;50.858;6.586;2024-02-26T05:29:21;3.10;;;2.30;;
14316;SDS011;7242;50.858;6.586;2024-02-26T05:32:23;4.20;;;3.03;;
14316;SDS011;7242;50.858;6.586;2024-02-26T05:35:24;3.73;;;2.10;;
14316;SDS011;7242;50.858;6.586;2024-02-26T05:38:26;3.63;;;2.57;;
14316;SDS011;7242;50.858;6.586;2024-02-26T05:41:27;2.63;;;2.43;;
14316;SDS011;7242;50.858;6.586;2024-02-26T05:44:27;2.20;;;1.90;;
14316;SDS011;7242;50.858;6.586;2024-02-26T05:47:29;2.37;;;2.13;;
14316;SDS011;7242;50.858;6.586;2024-02-26T05:50:30;2.90;;;1.90;;
14316;SDS011;7242;50.858;6.586;2024-02-26T05:53:31;3.10;;;1.80;;
14316;SDS011;7242;50.858;6.586;2024-02-26T05:56:32;2.27;;;1.90;;
14316;SDS011;7242;50.858;6.586;2024-02-26T05:59:33;2.27;;;1.77;;
14316;SDS011;7242;50.858;6.586;2024-02-26T06:02:34;1.70;;;1.60;;
14316;SDS011;7242;50.858;6.586;2024-02-26T06:05:35;2.43;;;1.80;;
14316;SDS011;7242;50.858;6.586;2024-02-26T06:08:36;4.70;;;2.10;;
14316;SDS011;7242;50.858;6.586;2024-02-26T06:11:37;3.43;;;2.30;;
14316;SDS011;7242;50.858;6.586;2024-02-26T06:14:38;2.57;;;2.20;;
14316;SDS011;7242;50.858;6.586;2024-02-26T06:17:39;3.00;;;2.10;;
14316;SDS011;7242;50.858;6.586;2024-02-26T06:20:41;3.00;;;1.93;;
14316;SDS011;7242;50.858;6.586;2024-02-26T06:23:42;2.93;;;1.80;;
14316;SDS011;7242;50.858;6.586;2024-02-26T06:26:43;2.33;;;2.00;;
14316;SDS011;7242;50.858;6.586;2024-02-26T06:29:44;3.77;;;2.07;;
14316;SDS011;7242;50.858;6.586;2024-02-26T06:32:45;3.23;;;2.33;;
14316;SDS011;7242;50.858;6.586;2024-02-26T06:35:46;2.97;;;2.50;;
14316;SDS011;7242;50.858;6.586;2024-02-26T06:38:47;3.63;;;2.90;;
14316;SDS011;7242;50.858;6.586;2024-02-26T06:41:49;3.03;;;2.40;;
14316;SDS011;7242;50.858;6.586;2024-02-26T06:44:50;2.83;;;2.30;;
14316;SDS011;7242;50.858;6.586;2024-02-26T06:47:51;3.43;;;2.40;;
14316;SDS011;7242;50.858;6.586;2024-02-26T06:50:52;2.50;;;2.27;;
14316;SDS011;7242;50.858;6.586;2024-02-26T06:53:53;3.07;;;2.70;;
14316;SDS011;7242;50.858;6.586;2024-02-26T06:56:54;5.60;;;2.90;;
14316;SDS011;7242;50.858;6.586;2024-02-26T06:59:55;4.40;;;2.47;;
14316;SDS011;7242;50.858;6.586;2024-02-26T07:02:58;2.67;;;2.30;;
14316;SDS011;7242;50.858;6.586;2024-02-26T07:05:59;4.00;;;2.50;;
14316;SDS011;7242;50.858;6.586;2024-02-26T07:09:00;3.23;;;2.30;;
14316;SDS011;7242;50.858;6.586;2024-02-26T07:12:01;2.67;;;2.30;;
14316;SDS011;7242;50.858;6.586;2024-02-26T07:15:02;3.73;;;2.40;;
14316;SDS011;7242;50.858;6.586;2024-02-26T07:18:03;3.27;;;2.20;;
14316;SDS011;7242;50.858;6.586;2024-02-26T07:21:04;3.50;;;2.63;;
14316;SDS011;7242;50.858;6.586;2024-02-26T07:24:06;3.57;;;2.70;;
14316;SDS011;7242;50.858;6.586;2024-02-26T07:27:07;3.50;;;2.97;;
14316;SDS011;7242;50.858;6.586;2024-02-26T07:30:08;3.43;;;2.87;;
14316;SDS011;7242;50.858;6.586;2024-02-26T07:33:13;3.80;;;2.97;;
14316;SDS011;7242;50.858;6.586;2024-02-26T07:36:13;5.40;;;2.97;;
14316;SDS011;7242;50.858;6.586;2024-02-26T07:39:15;4.00;;;3.50;;
14316;SDS011;7242;50.858;6.586;2024-02-26T07:42:16;4.93;;;3.47;;
14316;SDS011;7242;50.858;6.586;2024-02-26T07:45:17;5.43;;;3.80;;
14316;SDS011;7242;50.858;6.586;2024-02-26T07:48:21;4.77;;;3.93;;
14316;SDS011;7242;50.858;6.586;2024-02-26T07:51:22;5.27;;;3.70;;
14316;SDS011;7242;50.858;6.586;2024-02-26T07:54:23;5.40;;;3.23;;
14316;SDS011;7242;50.858;6.586;2024-02-26T07:57:24;4.07;;;2.90;;
14316;SDS011;7242;50.858;6.586;2024-02-26T08:00:25;4.37;;;3.57;;
14316;SDS011;7242;50.858;6.586;2024-02-26T08:03:26;3.53;;;3.10;;
14316;SDS011;7242;50.858;6.586;2024-02-26T08:06:27;4.23;;;3.10;;
14316;SDS011;7242;50.858;6.586;2024-02-26T08:09:28;4.57;;;2.93;;
14316;SDS011;7242;50.858;6.586;2024-02-26T08:12:30;3.57;;;3.00;;
14316;SDS011;7242;50.858;6.586;2024-02-26T08:15:31;3.70;;;3.27;;
14316;SDS011;7242;50.858;6.586;2024-02-26T08:18:34;3.30;;;2.90;;
14316;SDS011;7242;50.858;6.586;2024-02-26T08:21:35;4.03;;;2.97;;
14316;SDS011;7242;50.858;6.586;2024-02-26T08:24:37;3.47;;;3.10;;
14316;SDS011;7242;50.858;6.586;2024-02-26T08:27:38;3.90;;;3.50;;
14316;SDS011;7242;50.858;6.586;2024-02-26T08:30:39;3.00;;;2.70;;
14316;SDS011;7242;50.858;6.586;2024-02-26T08:33:40;4.37;;;2.93;;
14316;SDS011;7242;50.858;6.586;2024-02-26T08:36:41;4.10;;;3.10;;
14316;SDS011;7242;50.858;6.586;2024-02-26T08:39:43;5.13;;;3.03;;
14316;SDS011;7242;50.858;6.586;2024-02-26T08:42:46;3.47;;;3.10;;
14316;SDS011;7242;50.858;6.586;2024-02-26T08:45:47;4.17;;;2.80;;
14316;SDS011;7242;50.858;6.586;2024-02-26T08:48:48;3.97;;;3.37;;
14316;SDS011;7242;50.858;6.586;2024-02-26T08:51:49;3.37;;;3.07;;
14316;SDS011;7242;50.858;6.586;2024-02-26T08:54:50;4.93;;;3.23;;
14316;SDS011;7242;50.858;6.586;2024-02-26T08:57:51;3.87;;;3.47;;
14316;SDS011;7242;50.858;6.586;2024-02-26T09:00:52;5.10;;;4.10;;
14316;SDS011;7242;50.858;6.586;2024-02-26T09:03:53;4.60;;;4.20;;
14316;SDS011;7242;50.858;6.586;2024-02-26T09:06:54;5.40;;;4.90;;
14316;SDS011;7242;50.858;6.586;2024-02-26T09:09:56;7.07;;;4.80;;
14316;SDS011;7242;50.858;6.586;2024-02-26T09:12:57;5.30;;;4.80;;
14316;SDS011;7242;50.858;6.586;2024-02-26T09:15:58;6.60;;;5.30;;
14316;SDS011;7242;50.858;6.586;2024-02-26T09:18:59;5.67;;;5.17;;
14316;SDS011;7242;50.858;6.586;2024-02-26T09:22:00;6.80;;;5.97;;
14316;SDS011;7242;50.858;6.586;2024-02-26T09:25:01;6.60;;;5.20;;
14316;SDS011;7242;50.858;6.586;2024-02-26T09:28:03;6.07;;;5.50;;
14316;SDS011;7242;50.858;6.586;2024-02-26T09:31:04;5.97;;;5.33;;
14316;SDS011;7242;50.858;6.586;2024-02-26T09:34:06;5.90;;;5.30;;
14316;SDS011;7242;50.858;6.586;2024-02-26T09:37:08;5.83;;;4.80;;
14316;SDS011;7242;50.858;6.586;2024-02-26T09:40:08;6.27;;;5.33;;
14316;SDS011;7242;50.858;6.586;2024-02-26T09:43:14;5.57;;;5.00;;
14316;SDS011;7242;50.858;6.586;2024-02-26T09:46:17;5.90;;;5.30;;
14316;SDS011;7242;50.858;6.586;2024-02-26T09:49:20;6.07;;;4.70;;
14316;SDS011;7242;50.858;6.586;2024-02-26T09:52:24;5.47;;;4.57;;
14316;SDS011;7242;50.858;6.586;2024-02-26T09:55:27;4.93;;;3.90;;
14316;SDS011;7242;50.858;6.586;2024-02-26T09:58:28;5.10;;;3.93;;
14316;SDS011;7242;50.858;6.586;2024-02-26T10:01:30;4.23;;;3.80;;
14316;SDS011;7242;50.858;6.586;2024-02-26T10:04:33;5.20;;;4.17;;
14316;SDS011;7242;50.858;6.586;2024-02-26T10:07:35;4.93;;;4.00;;
14316;SDS011;7242;50.858;6.586;2024-02-26T10:10:36;4.90;;;3.20;;
14316;SDS011;7242;50.858;6.586;2024-02-26T10:13:39;4.60;;;3.30;;
14316;SDS011;7242;50.858;6.586;2024-02-26T10:16:40;4.00;;;3.30;;
14316;SDS011;7242;50.858;6.586;2024-02-26T10:19:41;4.37;;;3.13;;
14316;SDS011;7242;50.858;6.586;2024-02-26T10:22:43;3.30;;;2.80;;
14316;SDS011;7242;50.858;6.586;2024-02-26T10:26:05;3.00;;;2.70;;
14316;SDS011;7242;50.858;6.586;2024-02-26T10:29:06;3.93;;;2.60;;
14316;SDS011;7242;50.858;6.586;2024-02-26T10:32:09;3.03;;;2.73;;
14316;SDS011;7242;50.858;6.586;2024-02-26T10:35:11;3.97;;;2.93;;
14316;SDS011;7242;50.858;6.586;2024-02-26T10:38:12;3.10;;;2.80;;
14316;SDS011;7242;50.858;6.586;2024-02-26T10:41:14;3.23;;;2.70;;
14316;SDS011;7242;50.858;6.586;2024-02-26T10:44:15;3.97;;;2.67;;
14316;SDS011;7242;50.858;6.586;2024-02-26T10:47:16;3.30;;;2.70;;
14316;SDS011;7242;50.858;6.586;2024-02-26T10:50:18;3.83;;;2.73;;
14316;SDS011;7242;50.858;6.586;2024-02-26T10:53:20;3.03;;;2.57;;
14316;SDS011;7242;50.858;6.586;2024-02-26T10:56:22;3.27;;;2.70;;
14316;SDS011;7242;50.858;6.586;2024-02-26T10:59:26;4.40;;;2.70;;
14316;SDS011;7242;50.858;6.586;2024-02-26T11:02:27;2.97;;;2.60;;
14316;SDS011;7242;50.858;6.586;2024-02-26T11:05:28;2.50;;;2.30;;
14316;SDS011;7242;50.858;6.586;2024-02-26T11:08:30;3.63;;;2.70;;
14316;SDS011;7242;50.858;6.586;2024-02-26T11:11:31;3.50;;;2.77;;
14316;SDS011;7242;50.858;6.586;2024-02-26T11:14:34;4.07;;;3.10;;
14316;SDS011;7242;50.858;6.586;2024-02-26T11:17:36;3.20;;;2.90;;
14316;SDS011;7242;50.858;6.586;2024-02-26T11:20:38;4.87;;;4.00;;
14316;SDS011;7242;50.858;6.586;2024-02-26T11:23:42;3.57;;;3.03;;
14316;SDS011;7242;50.858;6.586;2024-02-26T11:26:45;3.27;;;2.93;;
14316;SDS011;7242;50.858;6.586;2024-02-26T11:29:51;4.30;;;3.37;;
14316;SDS011;7242;50.858;6.586;2024-02-26T11:32:54;3.00;;;2.60;;
14316;SDS011;7242;50.858;6.586;2024-02-26T11:35:55;3.03;;;2.70;;
14316;SDS011;7242;50.858;6.586;2024-02-26T11:38:56;3.33;;;3.03;;
14316;SDS011;7242;50.858;6.586;2024-02-26T11:42:04;5.83;;;3.10;;
14316;SDS011;7242;50.858;6.586;2024-02-26T11:45:18;3.20;;;2.73;;
14316;SDS011;7242;50.858;6.586;2024-02-26T11:48:39;5.40;;;2.90;;
14316;SDS011;7242;50.858;6.586;2024-02-26T11:51:39;3.37;;;2.90;;
14316;SDS011;7242;50.858;6.586;2024-02-26T11:54:57;4.57;;;3.00;;
14316;SDS011;7242;50.858;6.586;2024-02-26T11:57:59;4.67;;;3.40;;
14316;SDS011;7242;50.858;6.586;2024-02-26T12:01:00;4.13;;;3.30;;
14316;SDS011;7242;50.858;6.586;2024-02-26T12:04:07;3.47;;;3.17;;
14316;SDS011;7242;50.858;6.586;2024-02-26T12:07:11;3.77;;;3.40;;
14316;SDS011;7242;50.858;6.586;2024-02-26T12:10:17;6.60;;;3.90;;
14316;SDS011;7242;50.858;6.586;2024-02-26T12:13:31;4.17;;;3.33;;
14316;SDS011;7242;50.858;6.586;2024-02-26T12:16:35;3.97;;;3.33;;
14316;SDS011;7242;50.858;6.586;2024-02-26T12:19:37;4.47;;;3.33;;
14316;SDS011;7242;50.858;6.586;2024-02-26T12:22:41;4.93;;;3.03;;
14316;SDS011;7242;50.858;6.586;2024-02-26T12:25:47;5.27;;;3.30;;
14316;SDS011;7242;50.858;6.586;2024-02-26T12:28:49;3.80;;;3.23;;
14316;SDS011;7242;50.858;6.586;2024-02-26T12:31:50;4.40;;;3.23;;
14316;SDS011;7242;50.858;6.586;2024-02-26T12:34:51;4.80;;;2.90;;
14316;SDS011;7242;50.858;6.586;2024-02-26T12:37:53;3.93;;;3.10;;
14316;SDS011;7242;50.858;6.586;2024-02-26T12:40:54;3.83;;;3.10;;
14316;SDS011;7242;50.858;6.586;2024-02-26T12:43:55;4.13;;;3.50;;
14316;SDS011;7242;50.858;6.586;2024-02-26T12:47:01;6.27;;;3.90;;
14316;SDS011;7242;50.858;6.586;2024-02-26T12:50:05;6.83;;;4.73;;
14316;SDS011;7242;50.858;6.586;2024-02-26T12:53:06;5.53;;;3.77;;
14316;SDS011;7242;50.858;6.586;2024-02-26T12:56:07;4.23;;;3.33;;
14316;SDS011;7242;50.858;6.586;2024-02-26T12:59:09;3.93;;;3.57;;
14316;SDS011;7242;50.858;6.586;2024-02-26T13:02:10;4.77;;;3.60;;
14316;SDS011;7242;50.858;6.586;2024-02-26T13:05:12;4.97;;;3.27;;
14316;SDS011;7242;50.858;6.586;2024-02-26T13:08:17;4.90;;;3.37;;
14316;SDS011;7242;50.858;6.586;2024-02-26T13:11:19;5.33;;;3.27;;
14316;SDS011;7242;50.858;6.586;2024-02-26T13:14:20;4.20;;;3.30;;
14316;SDS011;7242;50.858;6.586;2024-02-26T13:17:22;4.37;;;3.37;;
14316;SDS011;7242;50.858;6.586;2024-02-26T13:20:28;3.97;;;3.57;;
14316;SDS011;7242;50.858;6.586;2024-02-26T13:23:30;3.87;;;3.50;;
14316;SDS011;7242;50.858;6.586;2024-02-26T13:26:31;6.83;;;3.57;;
14316;SDS011;7242;50.858;6.586;2024-02-26T13:29:32;3.77;;;3.47;;
14316;SDS011;7242;50.858;6.586;2024-02-26T13:32:36;4.07;;;3.20;;
14316;SDS011;7242;50.858;6.586;2024-02-26T13:35:39;4.17;;;3.13;;
14316;SDS011;7242;50.858;6.586;2024-02-26T13:38:40;5.23;;;3.27;;
14316;SDS011;7242;50.858;6.586;2024-02-26T13:41:54;3.60;;;3.30;;
14316;SDS011;7242;50.858;6.586;2024-02-26T13:44:57;4.03;;;3.63;;
14316;SDS011;7242;50.858;6.586;2024-02-26T13:48:08;4.20;;;3.80;;
14316;SDS011;7242;50.858;6.586;2024-02-26T13:51:11;4.77;;;3.60;;
14316;SDS011;7242;50.858;6.586;2024-02-26T13:54:12;4.63;;;3.60;;
14316;SDS011;7242;50.858;6.586;2024-02-26T13:57:15;4.67;;;3.57;;
14316;SDS011;7242;50.858;6.586;2024-02-26T14:00:17;4.93;;;3.70;;
14316;SDS011;7242;50.858;6.586;2024-02-26T14:03:19;4.10;;;3.70;;
14316;SDS011;7242;50.858;6.586;2024-02-26T14:06:20;5.07;;;3.83;;
14316;SDS011;7242;50.858;6.586;2024-02-26T14:09:22;6.10;;;4.43;;
14316;SDS011;7242;50.858;6.586;2024-02-26T14:12:23;4.77;;;3.70;;
14316;SDS011;7242;50.858;6.586;2024-02-26T14:15:25;4.37;;;3.97;;
14316;SDS011;7242;50.858;6.586;2024-02-26T14:18:26;6.10;;;4.10;;
14316;SDS011;7242;50.858;6.586;2024-02-26T14:21:27;4.13;;;3.67;;
14316;SDS011;7242;50.858;6.586;2024-02-26T14:24:30;4.73;;;3.90;;
14316;SDS011;7242;50.858;6.586;2024-02-26T14:27:31;9.00;;;3.90;;
14316;SDS011;7242;50.858;6.586;2024-02-26T14:30:32;5.03;;;3.80;;
14316;SDS011;7242;50.858;6.586;2024-02-26T14:33:33;6.27;;;4.53;;
14316;SDS011;7242;50.858;6.586;2024-02-26T14:36:34;5.23;;;4.20;;
14316;SDS011;7242;50.858;6.586;2024-02-26T14:39:35;6.67;;;4.40;;
14316;SDS011;7242;50.858;6.586;2024-02-26T14:42:39;6.50;;;4.50;;
14316;SDS011;7242;50.858;6.586;2024-02-26T14:45:40;5.70;;;4.60;;
14316;SDS011;7242;50.858;6.586;2024-02-26T14:48:42;7.67;;;5.53;;
14316;SDS011;7242;50.858;6.586;2024-02-26T14:51:43;6.33;;;5.27;;
14316;SDS011;7242;50.858;6.586;2024-02-26T14:54:44;5.90;;;5.27;;
14316;SDS011;7242;50.858;6.586;2024-02-26T14:57:45;8.27;;;5.57;;
14316;SDS011;7242;50.858;6.586;2024-02-26T15:00:47;8.03;;;5.57;;
14316;SDS011;7242;50.858;6.586;2024-02-26T15:03:47;7.03;;;6.30;;
14316;SDS011;7242;50.858;6.586;2024-02-26T15:06:49;8.87;;;7.07;;
14316;SDS011;7242;50.858;6.586;2024-02-26T15:09:49;8.90;;;7.27;;
14316;SDS011;7242;50.858;6.586;2024-02-26T15:12:50;10.80;;;7.53;;
14316;SDS011;7242;50.858;6.586;2024-02-26T15:15:54;11.30;;;9.97;;
14316;SDS011;7242;50.858;6.586;2024-02-26T15:18:55;13.00;;;10.13;;
14316;SDS011;7242;50.858;6.586;2024-02-26T15:21:57;14.53;;;10.03;;
14316;SDS011;7242;50.858;6.586;2024-02-26T15:24:58;14.67;;;10.73;;
14316;SDS011;7242;50.858;6.586;2024-02-26T15:27:59;13.40;;;11.13;;
14316;SDS011;7242;50.858;6.586;2024-02-26T15:31:01;14.63;;;12.43;;
14316;SDS011;7242;50.858;6.586;2024-02-26T15:34:02;13.93;;;10.90;;
14316;SDS011;7242;50.858;6.586;2024-02-26T15:37:04;14.93;;;12.57;;
14316;SDS011;7242;50.858;6.586;2024-02-26T15:40:05;15.77;;;11.80;;
14316;SDS011;7242;50.858;6.586;2024-02-26T15:43:07;12.60;;;11.30;;
14316;SDS011;7242;50.858;6.586;2024-02-26T15:46:08;14.77;;;11.87;;
14316;SDS011;7242;50.858;6.586;2024-02-26T15:49:09;13.90;;;11.40;;
14316;SDS011;7242;50.858;6.586;2024-02-26T15:52:10;16.17;;;12.50;;
14316;SDS011;7242;50.858;6.586;2024-02-26T15:55:11;12.23;;;10.83;;
14316;SDS011;7242;50.858;6.586;2024-02-26T15:58:13;14.70;;;10.90;;
14316;SDS011;7242;50.858;6.586;2024-02-26T16:01:14;13.03;;;10.50;;
14316;SDS011;7242;50.858;6.586;2024-02-26T16:04:15;14.20;;;11.20;;
14316;SDS011;7242;50.858;6.586;2024-02-26T16:07:18;13.17;;;10.60;;
14316;SDS011;7242;50.858;6.586;2024-02-26T16:10:24;13.83;;;11.30;;
14316;SDS011;7242;50.858;6.586;2024-02-26T16:13:27;14.40;;;11.67;;
14316;SDS011;7242;50.858;6.586;2024-02-26T16:16:28;14.70;;;12.07;;
14316;SDS011;7242;50.858;6.586;2024-02-26T16:19:32;15.33;;;11.90;;
14316;SDS011;7242;50.858;6.586;2024-02-26T16:22:34;16.27;;;12.20;;
14316;SDS011;7242;50.858;6.586;2024-02-26T16:25:38;19.97;;;13.37;;
14316;SDS011;7242;50.858;6.586;2024-02-26T16:28:39;20.23;;;13.70;;
14316;SDS011;7242;50.858;6.586;2024-02-26T16:31:40;19.20;;;14.17;;
14316;SDS011;7242;50.858;6.586;2024-02-26T16:34:41;19.90;;;15.20;;
14316;SDS011;7242;50.858;6.586;2024-02-26T16:37:42;21.80;;;14.67;;
14316;SDS011;7242;50.858;6.586;2024-02-26T16:40:43;25.53;;;16.30;;
14316;SDS011;7242;50.858;6.586;2024-02-26T16:43:44;16.63;;;11.40;;
14316;SDS011;7242;50.858;6.586;2024-02-26T16:46:45;12.03;;;9.50;;
14316;SDS011;7242;50.858;6.586;2024-02-26T16:49:47;12.00;;;9.80;;
14316;SDS011;7242;50.858;6.586;2024-02-26T16:52:48;11.33;;;10.13;;
14316;SDS011;7242;50.858;6.586;2024-02-26T16:55:50;12.13;;;10.00;;
14316;SDS011;7242;50.858;6.586;2024-02-26T16:58:51;12.43;;;9.20;;
14316;SDS011;7242;50.858;6.586;2024-02-26T17:01:53;11.10;;;9.10;;
14316;SDS011;7242;50.858;6.586;2024-02-26T17:04:55;11.93;;;8.03;;
14316;SDS011;7242;50.858;6.586;2024-02-26T17:07:56;11.13;;;8.73;;
14316;SDS011;7242;50.858;6.586;2024-02-26T17:10:57;10.53;;;8.77;;
14316;SDS011;7242;50.858;6.586;2024-02-26T17:13:59;10.93;;;8.50;;
14316;SDS011;7242;50.858;6.586;2024-02-26T17:17:00;11.27;;;8.47;;
14316;SDS011;7242;50.858;6.586;2024-02-26T17:20:03;12.30;;;8.60;;
14316;SDS011;7242;50.858;6.586;2024-02-26T17:23:05;10.77;;;8.63;;
14316;SDS011;7242;50.858;6.586;2024-02-26T17:26:06;10.07;;;8.30;;
14316;SDS011;7242;50.858;6.586;2024-02-26T17:29:09;10.50;;;8.87;;
14316;SDS011;7242;50.858;6.586;2024-02-26T17:32:10;12.33;;;8.80;;
14316;SDS011;7242;50.858;6.586;2024-02-26T17:35:11;10.80;;;8.20;;
14316;SDS011;7242;50.858;6.586;2024-02-26T17:38:15;9.93;;;7.50;;
14316;SDS011;7242;50.858;6.586;2024-02-26T17:41:15;11.33;;;7.50;;
14316;SDS011;7242;50.858;6.586;2024-02-26T17:44:17;7.80;;;7.00;;
14316;SDS011;7242;50.858;6.586;2024-02-26T17:47:18;11.13;;;7.10;;
14316;SDS011;7242;50.858;6.586;2024-02-26T17:50:22;7.23;;;6.13;;
14316;SDS011;7242;50.858;6.586;2024-02-26T17:53:24;8.87;;;6.37;;
14316;SDS011;7242;50.858;6.586;2024-02-26T17:56:25;10.23;;;6.40;;
14316;SDS011;7242;50.858;6.586;2024-02-26T17:59:26;8.30;;;6.10;;
14316;SDS011;7242;50.858;6.586;2024-02-26T18:02:29;7.23;;;6.03;;
14316;SDS011;7242;50.858;6.586;2024-02-26T18:05:30;8.70;;;5.63;;
14316;SDS011;7242;50.858;6.586;2024-02-26T18:08:32;7.90;;;5.87;;
14316;SDS011;7242;50.858;6.586;2024-02-26T18:11:33;7.67;;;5.43;;
14316;SDS011;7242;50.858;6.586;2024-02-26T18:14:34;7.27;;;4.73;;
14316;SDS011;7242;50.858;6.586;2024-02-26T18:17:35;9.47;;;5.37;;
14316;SDS011;7242;50.858;6.586;2024-02-26T18:20:37;5.47;;;4.83;;
14316;SDS011;7242;50.858;6.586;2024-02-26T18:23:40;8.57;;;6.37;;
14316;SDS011;7242;50.858;6.586;2024-02-26T18:26:43;6.83;;;5.10;;